createdAt,value
2022-12-23T00:01:24.701Z,12.10
2022-12-23T00:03:57.735Z,12.00
2022-12-23T00:06:26.313Z,12.10
2022-12-23T00:08:59.025Z,12.10
2022-12-23T00:11:28.227Z,12.20
2022-12-23T00:14:20.371Z,12.20
2022-12-23T00:16:50.467Z,12.30
2022-12-23T00:19:20.345Z,12.30
2022-12-23T00:21:49.144Z,12.30
2022-12-23T00:24:17.563Z,12.40
2022-12-23T00:26:45.999Z,12.40
2022-12-23T00:29:14.192Z,12.40
2022-12-23T00:31:42.505Z,12.40
2022-12-23T00:34:12.515Z,12.50
2022-12-23T00:36:42.479Z,12.40
2022-12-23T00:39:31.480Z,12.60
2022-12-23T00:42:17.044Z,12.60
2022-12-23T00:44:45.260Z,12.60
2022-12-23T00:47:34.076Z,12.60
2022-12-23T00:50:01.297Z,12.60
2022-12-23T00:52:31.142Z,12.60
2022-12-23T00:54:59.280Z,12.60
2022-12-23T00:57:27.522Z,12.60
2022-12-23T00:59:55.776Z,12.70
2022-12-23T01:02:41.302Z,12.70
2022-12-23T01:05:29.270Z,12.70
2022-12-23T01:07:58.980Z,12.70
2022-12-23T01:10:27.315Z,12.70
2022-12-23T01:12:55.473Z,12.80
2022-12-23T01:15:24.233Z,12.80
2022-12-23T01:17:52.408Z,12.90
2022-12-23T01:20:20.627Z,12.80
2022-12-23T01:22:48.977Z,12.90
2022-12-23T01:25:19.091Z,12.90
2022-12-23T01:27:47.407Z,12.90
2022-12-23T01:30:15.898Z,12.90
2022-12-23T01:32:44.063Z,13.00
2022-12-23T01:35:12.415Z,12.80
2022-12-23T01:37:41.013Z,12.90
2022-12-23T01:40:10.600Z,12.90
2022-12-23T01:42:46.624Z,12.90
2022-12-23T01:45:18.742Z,12.90
2022-12-23T01:47:51.428Z,12.90
2022-12-23T01:50:23.730Z,12.90
2022-12-23T01:53:01.698Z,12.90
2022-12-23T01:55:37.527Z,12.90
2022-12-23T01:58:11.912Z,12.90
2022-12-23T02:00:58.943Z,12.90
2022-12-23T02:03:45.307Z,12.90
2022-12-23T02:06:48.343Z,12.90
2022-12-23T02:09:19.509Z,12.90
2022-12-23T02:12:02.945Z,12.80
2022-12-23T02:15:03.233Z,12.80
2022-12-23T02:17:40.601Z,12.80
2022-12-23T02:20:45.412Z,12.80
2022-12-23T02:23:45.369Z,12.80
2022-12-23T02:26:40.672Z,12.80
2022-12-23T02:29:33.919Z,12.80
2022-12-23T02:32:12.916Z,12.80
2022-12-23T02:34:50.993Z,12.90
2022-12-23T02:37:25.579Z,12.90
2022-12-23T02:39:59.263Z,12.90
2022-12-23T02:42:32.861Z,12.80
2022-12-23T02:45:04.541Z,12.80
2022-12-23T02:47:39.043Z,12.80
2022-12-23T02:50:11.289Z,12.90
2022-12-23T02:52:42.405Z,13.00
2022-12-23T02:55:16.583Z,12.90
2022-12-23T02:57:49.499Z,13.00
2022-12-23T03:00:18.918Z,13.00
2022-12-23T03:02:49.361Z,13.10
2022-12-23T03:05:29.084Z,13.10
2022-12-23T03:08:02.725Z,13.10
2022-12-23T03:10:43.133Z,13.10
2022-12-23T03:13:28.317Z,13.10
2022-12-23T03:16:07.320Z,13.00
2022-12-23T03:18:47.828Z,13.20
2022-12-23T03:21:21.573Z,13.20
2022-12-23T03:23:55.775Z,13.30
2022-12-23T03:26:33.366Z,13.30
2022-12-23T03:29:06.084Z,13.30
2022-12-23T03:31:35.860Z,13.30
2022-12-23T03:34:09.545Z,13.30
2022-12-23T03:36:42.209Z,13.30
2022-12-23T03:39:15.177Z,13.30
2022-12-23T03:41:48.736Z,13.30
2022-12-23T03:44:19.947Z,13.20
2022-12-23T03:46:52.854Z,13.30
2022-12-23T03:49:26.859Z,13.30
2022-12-23T03:52:01.014Z,13.30
2022-12-23T03:54:33.901Z,13.40
2022-12-23T03:57:05.888Z,13.30
2022-12-23T03:59:38.024Z,13.20
2022-12-23T04:02:12.157Z,13.10
2022-12-23T04:05:04.995Z,13.00
2022-12-23T04:07:38.296Z,13.00
2022-12-23T04:10:08.795Z,13.10
2022-12-23T04:12:37.988Z,13.20
2022-12-23T04:15:12.539Z,13.30
2022-12-23T04:17:41.434Z,13.10
2022-12-23T04:20:12.327Z,13.10
2022-12-23T04:22:43.431Z,13.00
2022-12-23T04:25:11.731Z,13.00
2022-12-23T04:27:40.206Z,13.00
2022-12-23T04:30:10.941Z,12.80
2022-12-23T04:32:39.100Z,12.90
2022-12-23T04:35:08.070Z,13.10
2022-12-23T04:37:38.065Z,13.20
2022-12-23T04:40:07.664Z,13.30
2022-12-23T04:42:36.431Z,13.30
2022-12-23T04:45:05.061Z,13.40
2022-12-23T04:47:33.439Z,13.40
2022-12-23T04:50:01.750Z,13.40
2022-12-23T04:52:29.955Z,13.50
2022-12-23T04:54:59.690Z,13.50
2022-12-23T04:57:27.834Z,13.50
2022-12-23T04:59:55.980Z,13.40
2022-12-23T05:02:24.443Z,13.40
2022-12-23T05:04:52.702Z,13.40
2022-12-23T05:07:20.798Z,13.30
2022-12-23T05:09:48.924Z,13.30
2022-12-23T05:12:18.570Z,13.30
2022-12-23T05:14:47.275Z,13.10
2022-12-23T05:17:15.427Z,13.00
2022-12-23T05:19:43.535Z,13.00
2022-12-23T05:22:11.742Z,13.00
2022-12-23T05:24:39.952Z,13.10
2022-12-23T05:27:08.198Z,13.10
2022-12-23T05:29:37.878Z,13.10
2022-12-23T05:32:06.426Z,13.10
2022-12-23T05:34:34.596Z,13.10
2022-12-23T05:37:02.773Z,13.00
2022-12-23T05:39:30.930Z,13.00
2022-12-23T05:41:59.205Z,13.00
2022-12-23T05:44:27.348Z,13.10
2022-12-23T05:46:56.864Z,13.10
2022-12-23T05:49:25.752Z,13.10
2022-12-23T05:51:53.935Z,13.10
2022-12-23T05:54:22.262Z,13.10
2022-12-23T05:56:50.573Z,13.00
2022-12-23T05:59:18.749Z,13.00
2022-12-23T06:01:47.126Z,13.00
2022-12-23T06:04:16.936Z,12.90
2022-12-23T06:06:45.251Z,12.90
2022-12-23T06:09:13.850Z,12.90
2022-12-23T06:11:42.113Z,12.90
2022-12-23T06:14:10.871Z,12.90
2022-12-23T06:16:39.173Z,12.90
2022-12-23T06:19:07.304Z,13.00
2022-12-23T06:21:36.899Z,13.00
2022-12-23T06:24:05.419Z,13.00
2022-12-23T06:26:33.891Z,13.00
2022-12-23T06:29:02.181Z,13.00
2022-12-23T06:31:30.445Z,13.00
2022-12-23T06:33:58.774Z,13.00
2022-12-23T06:36:26.999Z,13.00
2022-12-23T06:38:56.929Z,13.00
2022-12-23T06:41:25.143Z,13.00
2022-12-23T06:43:54.580Z,13.00
2022-12-23T06:46:23.082Z,13.10
2022-12-23T06:48:51.296Z,13.00
2022-12-23T06:51:19.665Z,13.00
2022-12-23T06:53:47.860Z,12.90
2022-12-23T06:56:17.721Z,13.00
2022-12-23T06:58:45.902Z,13.00
2022-12-23T07:01:14.201Z,13.10
2022-12-23T07:03:42.460Z,13.10
2022-12-23T07:06:10.713Z,13.10
2022-12-23T07:08:39.034Z,13.10
2022-12-23T07:11:08.604Z,13.10
2022-12-23T07:13:38.517Z,13.10
2022-12-23T07:16:08.046Z,13.00
2022-12-23T07:18:37.105Z,13.00
2022-12-23T07:21:07.934Z,13.00
2022-12-23T07:23:41.634Z,13.10
2022-12-23T07:26:09.868Z,13.10
2022-12-23T07:28:39.813Z,13.10
2022-12-23T07:31:09.490Z,13.10
2022-12-23T07:33:37.688Z,13.00
2022-12-23T07:36:06.412Z,13.10
2022-12-23T07:38:34.680Z,13.10
2022-12-23T07:41:02.919Z,13.10
2022-12-23T07:43:31.325Z,13.20
2022-12-23T07:46:06.469Z,13.20
2022-12-23T07:48:34.781Z,13.20
2022-12-23T07:51:03.196Z,13.10
2022-12-23T07:53:31.626Z,13.10
2022-12-23T07:55:59.763Z,13.20
2022-12-23T07:58:28.190Z,13.20
2022-12-23T08:01:03.121Z,13.10
2022-12-23T08:03:32.082Z,13.10
2022-12-23T08:06:01.618Z,13.10
2022-12-23T08:08:29.768Z,13.10
2022-12-23T08:11:00.409Z,13.20
2022-12-23T08:13:28.992Z,13.20
2022-12-23T08:15:58.690Z,13.20
2022-12-23T08:18:30.964Z,13.20
2022-12-23T08:21:01.011Z,13.10
2022-12-23T08:23:30.010Z,13.20
2022-12-23T08:26:02.475Z,13.10
2022-12-23T08:28:31.178Z,13.20
2022-12-23T08:31:05.635Z,13.20
2022-12-23T08:33:36.716Z,13.20
2022-12-23T08:36:05.985Z,13.20
2022-12-23T08:38:34.399Z,13.20
2022-12-23T08:41:02.721Z,13.20
2022-12-23T08:43:35.799Z,13.20
2022-12-23T08:46:04.734Z,13.20
2022-12-23T08:48:36.484Z,13.30
2022-12-23T08:51:06.517Z,13.20
2022-12-23T08:53:35.960Z,13.20
2022-12-23T08:56:06.385Z,13.30
2022-12-23T08:58:38.357Z,13.30
2022-12-23T09:01:08.163Z,13.30
2022-12-23T09:03:39.110Z,13.20
2022-12-23T09:06:08.785Z,13.30
2022-12-23T09:08:37.423Z,13.30
2022-12-23T09:11:05.786Z,13.40
2022-12-23T09:13:35.956Z,13.40
2022-12-23T09:16:04.943Z,13.40
2022-12-23T09:18:33.372Z,13.40
2022-12-23T09:21:05.390Z,13.30
2022-12-23T09:23:33.771Z,13.40
2022-12-23T09:26:02.459Z,13.30
2022-12-23T09:28:30.704Z,13.30
2022-12-23T09:30:59.169Z,13.30
2022-12-23T09:33:27.496Z,13.30
2022-12-23T09:36:02.624Z,13.30
2022-12-23T09:38:30.956Z,13.30
2022-12-23T09:41:04.545Z,13.30
2022-12-23T09:43:40.640Z,13.30
2022-12-23T09:46:17.172Z,13.30
2022-12-23T09:49:01.697Z,13.40
2022-12-23T09:51:32.354Z,13.30
2022-12-23T09:54:13.420Z,13.40
2022-12-23T09:56:52.602Z,13.40
2022-12-23T09:59:32.123Z,13.30
2022-12-23T10:02:06.626Z,13.30
2022-12-23T10:04:41.680Z,13.30
2022-12-23T10:07:23.292Z,13.20
2022-12-23T10:09:55.117Z,13.30
2022-12-23T10:12:39.494Z,13.20
2022-12-23T10:15:21.900Z,13.30
2022-12-23T10:17:53.849Z,13.20
2022-12-23T10:20:33.675Z,13.30
2022-12-23T10:23:03.336Z,13.30
2022-12-23T10:25:38.486Z,13.30
2022-12-23T10:28:06.652Z,13.40
2022-12-23T10:31:17.153Z,13.40
2022-12-23T10:33:36.775Z,13.40
2022-12-23T10:36:10.954Z,13.40
2022-12-23T10:38:57.402Z,13.50
2022-12-23T10:41:34.537Z,13.50
2022-12-23T10:44:23.028Z,13.50
2022-12-23T10:47:00.777Z,13.50
2022-12-23T10:49:41.193Z,13.50
2022-12-23T10:52:16.431Z,13.50
2022-12-23T10:54:47.795Z,13.50
2022-12-23T10:57:18.936Z,13.50
2022-12-23T10:59:47.357Z,13.50
2022-12-23T11:02:44.573Z,13.50
2022-12-23T11:05:16.293Z,13.50
2022-12-23T11:07:46.677Z,13.50
2022-12-23T11:10:19.546Z,13.50
2022-12-23T11:12:49.452Z,13.50
2022-12-23T11:15:31.060Z,13.50
2022-12-23T11:18:01.166Z,13.50
2022-12-23T11:20:29.748Z,13.60
2022-12-23T11:23:01.813Z,13.60
2022-12-23T11:25:37.910Z,13.60
2022-12-23T11:28:08.952Z,13.60
2022-12-23T11:30:39.686Z,13.60
2022-12-23T11:33:18.774Z,13.60
2022-12-23T11:35:47.069Z,13.60
2022-12-23T11:38:16.656Z,13.50
2022-12-23T11:40:48.121Z,13.60
2022-12-23T11:43:18.572Z,13.60
2022-12-23T11:45:46.843Z,13.60
2022-12-23T11:48:30.227Z,13.60
2022-12-23T11:51:03.317Z,13.70
2022-12-23T11:53:32.577Z,13.70
2022-12-23T11:56:06.535Z,13.70
2022-12-23T11:58:45.918Z,13.70
2022-12-23T12:01:18.871Z,13.70
2022-12-23T12:03:52.603Z,13.70
2022-12-23T12:06:21.949Z,13.70
2022-12-23T12:08:52.279Z,13.70
2022-12-23T12:11:27.494Z,13.70
2022-12-23T12:14:01.080Z,13.70
2022-12-23T12:16:45.942Z,13.60
2022-12-23T12:19:20.996Z,13.60
2022-12-23T12:21:53.114Z,13.60
2022-12-23T12:24:25.968Z,13.50
2022-12-23T12:27:01.824Z,13.60
2022-12-23T12:29:35.377Z,13.60
2022-12-23T12:32:06.723Z,13.60
2022-12-23T12:34:45.055Z,13.60
2022-12-23T12:37:23.353Z,13.60
2022-12-23T12:39:57.878Z,13.60
2022-12-23T12:42:31.312Z,13.60
2022-12-23T12:45:12.745Z,13.60
2022-12-23T12:47:59.440Z,13.60
2022-12-23T12:50:35.948Z,13.60
2022-12-23T12:53:13.068Z,13.60
2022-12-23T12:55:46.319Z,13.70
2022-12-23T12:58:20.563Z,13.70
2022-12-23T13:00:58.227Z,13.80
2022-12-23T13:03:45.802Z,13.80
2022-12-23T13:06:21.935Z,13.80
2022-12-23T13:09:02.601Z,13.80
2022-12-23T13:11:40.532Z,13.80
2022-12-23T13:14:20.605Z,13.90
2022-12-23T13:16:53.398Z,13.90
2022-12-23T13:19:30.366Z,13.90
2022-12-23T13:22:07.294Z,13.90
2022-12-23T13:24:49.050Z,13.90
2022-12-23T13:27:22.829Z,13.80
2022-12-23T13:30:01.071Z,13.80
2022-12-23T13:32:48.049Z,13.80
2022-12-23T13:35:37.514Z,13.80
2022-12-23T13:38:18.805Z,13.90
2022-12-23T13:40:59.281Z,13.90
2022-12-23T13:43:35.346Z,13.90
2022-12-23T13:46:13.312Z,13.80
2022-12-23T13:48:48.712Z,13.80
2022-12-23T13:51:23.648Z,13.90
2022-12-23T13:54:04.757Z,13.90
2022-12-23T13:56:40.953Z,13.90
2022-12-23T13:59:11.934Z,14.00
2022-12-23T14:01:47.867Z,13.90
2022-12-23T14:04:35.118Z,14.00
2022-12-23T14:07:07.173Z,14.00
2022-12-23T14:09:38.358Z,14.00
2022-12-23T14:12:20.265Z,14.00
2022-12-23T14:15:14.726Z,14.00
2022-12-23T14:17:53.188Z,13.90
2022-12-23T14:20:33.225Z,13.90
2022-12-23T14:23:11.131Z,13.80
2022-12-23T14:25:56.429Z,13.90
2022-12-23T14:28:46.503Z,13.90
2022-12-23T14:31:35.481Z,13.90
2022-12-23T14:34:08.077Z,14.00
2022-12-23T14:36:36.764Z,13.90
2022-12-23T14:39:31.758Z,14.00
2022-12-23T14:42:06.007Z,14.00
2022-12-23T14:44:51.892Z,14.00
2022-12-23T14:47:35.465Z,14.00
2022-12-23T14:50:37.509Z,14.00
2022-12-23T14:53:20.676Z,14.00
2022-12-23T14:55:51.463Z,14.00
2022-12-23T14:59:01.191Z,14.00
2022-12-23T15:01:35.031Z,14.00
2022-12-23T15:04:16.876Z,14.00
2022-12-23T15:06:48.816Z,14.10
2022-12-23T15:09:26.527Z,14.10
2022-12-23T15:11:55.935Z,14.00
2022-12-23T15:14:32.594Z,14.00
2022-12-23T15:17:00.920Z,14.10
2022-12-23T15:19:29.694Z,14.10
2022-12-23T15:22:22.316Z,14.10
2022-12-23T15:24:53.980Z,14.10
2022-12-23T15:27:28.024Z,14.10
2022-12-23T15:29:56.885Z,14.00
2022-12-23T15:32:26.298Z,14.00
2022-12-23T15:35:00.465Z,14.10
2022-12-23T15:37:31.598Z,14.10
2022-12-23T15:40:09.935Z,14.00
2022-12-23T15:42:40.037Z,14.00
2022-12-23T15:45:30.918Z,14.00
2022-12-23T15:47:59.275Z,14.10
2022-12-23T15:50:28.914Z,14.00
2022-12-23T15:53:04.856Z,14.10
2022-12-23T15:55:34.250Z,14.10
2022-12-23T15:58:03.986Z,14.10
2022-12-23T16:00:37.942Z,14.10
2022-12-23T16:03:13.635Z,14.10
2022-12-23T16:05:44.895Z,14.10
2022-12-23T16:08:28.924Z,14.10
2022-12-23T16:11:04.429Z,14.10
2022-12-23T16:13:33.333Z,14.10
2022-12-23T16:16:34.738Z,14.10
2022-12-23T16:19:03.192Z,14.00
2022-12-23T16:21:34.542Z,14.00
2022-12-23T16:24:09.983Z,14.10
2022-12-23T16:26:42.520Z,14.10
2022-12-23T16:29:12.718Z,14.10
2022-12-23T16:31:47.875Z,14.10
2022-12-23T16:34:19.465Z,14.20
2022-12-23T16:36:47.757Z,14.20
2022-12-23T16:39:22.873Z,14.20
2022-12-23T16:41:51.596Z,14.20
2022-12-23T16:44:19.970Z,14.20
2022-12-23T16:46:50.649Z,14.10
2022-12-23T16:49:20.995Z,14.10
2022-12-23T16:51:49.778Z,14.00
2022-12-23T16:54:20.501Z,14.00
2022-12-23T16:56:49.954Z,14.00
2022-12-23T16:59:18.266Z,14.00
2022-12-23T17:01:48.539Z,13.90
2022-12-23T17:04:17.316Z,14.00
2022-12-23T17:06:46.752Z,14.00
2022-12-23T17:09:15.163Z,14.00
2022-12-23T17:11:46.589Z,14.00
2022-12-23T17:14:17.663Z,13.90
2022-12-23T17:16:46.811Z,14.00
2022-12-23T17:19:15.629Z,14.00
2022-12-23T17:21:45.139Z,14.00
2022-12-23T17:24:18.291Z,14.00
2022-12-23T17:26:48.072Z,14.00
2022-12-23T17:29:16.419Z,14.10
2022-12-23T17:31:45.908Z,14.00
2022-12-23T17:34:16.684Z,14.00
2022-12-23T17:36:49.980Z,14.00
2022-12-23T17:39:19.094Z,14.10
2022-12-23T17:41:49.243Z,14.10
2022-12-23T17:44:18.904Z,14.00
2022-12-23T17:46:48.172Z,14.00
2022-12-23T17:49:16.316Z,13.90
2022-12-23T17:51:44.721Z,13.80
2022-12-23T17:54:23.287Z,13.80
2022-12-23T17:56:53.530Z,13.70
2022-12-23T17:59:21.835Z,13.70
2022-12-23T18:01:50.721Z,13.60
2022-12-23T18:04:19.030Z,13.70
2022-12-23T18:06:47.295Z,13.40
2022-12-23T18:09:15.456Z,13.20
2022-12-23T18:11:45.998Z,13.20
2022-12-23T18:14:18.817Z,13.10
2022-12-23T18:16:47.630Z,13.00
2022-12-23T18:19:19.048Z,13.20
2022-12-23T18:21:47.375Z,13.30
2022-12-23T18:24:15.656Z,13.30
2022-12-23T18:26:44.133Z,13.30
2022-12-23T18:29:12.284Z,13.40
2022-12-23T18:31:51.180Z,13.50
2022-12-23T18:34:21.401Z,13.60
2022-12-23T18:36:51.749Z,13.50
2022-12-23T18:39:20.546Z,13.60
2022-12-23T18:41:49.151Z,13.50
2022-12-23T18:44:20.490Z,13.70
2022-12-23T18:46:50.619Z,13.70
2022-12-23T18:49:19.005Z,13.80
2022-12-23T18:51:47.528Z,13.80
2022-12-23T18:54:16.746Z,13.80
2022-12-23T18:56:45.013Z,13.80
2022-12-23T18:59:21.369Z,13.80
2022-12-23T19:01:54.443Z,13.70
2022-12-23T19:04:22.710Z,13.70
2022-12-23T19:06:50.887Z,13.70
2022-12-23T19:09:22.383Z,13.60
2022-12-23T19:11:52.120Z,13.60
2022-12-23T19:14:20.246Z,13.70
2022-12-23T19:16:52.033Z,13.70
2022-12-23T19:19:23.192Z,13.60
2022-12-23T19:21:51.370Z,13.60
2022-12-23T19:24:19.598Z,13.60
2022-12-23T19:26:48.158Z,13.60
2022-12-23T19:29:17.090Z,13.80
2022-12-23T19:31:46.042Z,13.80
2022-12-23T19:34:15.728Z,13.90
2022-12-23T19:36:45.877Z,13.90
2022-12-23T19:39:16.768Z,13.90
2022-12-23T19:41:45.727Z,13.80
2022-12-23T19:44:14.240Z,13.80
2022-12-23T19:46:42.992Z,13.80
2022-12-23T19:49:19.173Z,13.70
2022-12-23T19:51:49.871Z,13.70
2022-12-23T19:54:18.941Z,13.60
2022-12-23T19:56:50.192Z,13.70
2022-12-23T19:59:18.555Z,13.80
2022-12-23T20:01:47.607Z,13.80
2022-12-23T20:04:16.797Z,13.80
2022-12-23T20:06:44.965Z,13.80
2022-12-23T20:09:15.001Z,13.90
2022-12-23T20:11:44.771Z,13.90
2022-12-23T20:14:15.115Z,14.00
2022-12-23T20:16:43.399Z,14.00
2022-12-23T20:19:11.873Z,13.80
2022-12-23T20:21:40.040Z,13.40
2022-12-23T20:24:09.150Z,13.30
2022-12-23T20:26:39.130Z,13.30
2022-12-23T20:29:07.370Z,13.40
2022-12-23T20:31:38.255Z,13.50
2022-12-23T20:34:07.939Z,13.50
2022-12-23T20:36:37.163Z,13.30
2022-12-23T20:39:06.069Z,13.30
2022-12-23T20:41:34.614Z,13.20
2022-12-23T20:46:52.490Z,13.20
2022-12-23T20:49:20.915Z,13.30
2022-12-23T20:51:49.065Z,13.30
2022-12-23T20:54:17.251Z,13.30
2022-12-23T20:56:45.784Z,13.30
2022-12-23T20:59:15.426Z,13.30
2022-12-23T21:01:43.798Z,13.40
2022-12-23T21:04:15.694Z,13.30
2022-12-23T21:06:44.842Z,13.30
2022-12-23T21:09:14.796Z,13.40
2022-12-23T21:11:44.905Z,13.50
2022-12-23T21:14:15.414Z,13.50
2022-12-23T21:16:44.552Z,13.40
2022-12-23T21:19:16.682Z,13.40
2022-12-23T21:21:45.319Z,13.20
2022-12-23T21:24:14.168Z,13.20
2022-12-23T21:26:42.294Z,13.00
2022-12-23T21:29:11.921Z,13.00
2022-12-23T21:31:42.571Z,12.90
2022-12-23T21:34:14.468Z,12.90
2022-12-23T21:36:43.952Z,12.90
2022-12-23T21:39:16.015Z,12.80
2022-12-23T21:41:45.777Z,12.80
2022-12-23T21:44:14.856Z,12.70
2022-12-23T21:46:44.654Z,12.70
2022-12-23T21:49:13.264Z,12.70
2022-12-23T21:51:42.059Z,12.70
2022-12-23T21:54:11.566Z,12.70
2022-12-23T21:56:40.851Z,12.70
2022-12-23T21:59:12.250Z,12.70
2022-12-23T22:01:41.159Z,12.70
2022-12-23T22:04:11.233Z,12.80
2022-12-23T22:06:43.533Z,12.80
2022-12-23T22:09:13.875Z,12.80
2022-12-23T22:11:42.542Z,12.80
2022-12-23T22:14:14.167Z,12.80
2022-12-23T22:16:42.443Z,12.80
2022-12-23T22:19:13.410Z,12.80
2022-12-23T22:21:42.848Z,12.90
2022-12-23T22:24:11.624Z,12.90
2022-12-23T22:26:40.646Z,13.00
2022-12-23T22:29:09.109Z,13.00
2022-12-23T22:31:40.606Z,13.00
2022-12-23T22:34:12.626Z,13.00
2022-12-23T22:36:40.895Z,13.00
2022-12-23T22:39:10.793Z,13.00
2022-12-23T22:41:41.318Z,13.00
2022-12-23T22:44:11.233Z,13.00
2022-12-23T22:46:39.522Z,13.00
2022-12-23T22:49:08.057Z,13.00
2022-12-23T22:51:37.517Z,13.00
2022-12-23T22:54:05.860Z,13.00
2022-12-23T22:56:34.095Z,13.00
2022-12-23T22:59:02.258Z,13.00
2022-12-23T23:01:32.247Z,13.00
2022-12-23T23:04:02.768Z,12.90
2022-12-23T23:06:32.913Z,13.00
2022-12-23T23:09:03.170Z,13.00
2022-12-23T23:11:31.271Z,13.00
2022-12-23T23:13:59.775Z,12.90
2022-12-23T23:16:28.147Z,12.90
2022-12-23T23:18:57.786Z,13.00
2022-12-23T23:21:26.910Z,13.00
2022-12-23T23:23:55.265Z,13.00
2022-12-23T23:26:27.435Z,13.00
2022-12-23T23:28:56.257Z,13.00
2022-12-23T23:31:42.062Z,13.00
2022-12-23T23:34:10.851Z,13.00
2022-12-23T23:36:39.139Z,13.00
2022-12-23T23:39:07.358Z,12.90
2022-12-23T23:41:36.915Z,12.90
2022-12-23T23:44:05.643Z,12.90
2022-12-23T23:46:34.225Z,12.90
2022-12-23T23:49:02.489Z,12.90
2022-12-23T23:51:30.769Z,13.00
2022-12-23T23:53:58.967Z,13.00
2022-12-23T23:56:31.093Z,12.90
2022-12-23T23:59:03.626Z,12.90
